createdAt,value
2018-02-02T00:01:34.947Z,0.60
2018-02-02T00:04:02.572Z,0.50
2018-02-02T00:06:30.098Z,0.50
2018-02-02T00:08:57.676Z,0.50
2018-02-02T00:11:25.224Z,0.50
2018-02-02T00:13:52.838Z,0.50
2018-02-02T00:16:20.389Z,0.50
2018-02-02T00:18:48.011Z,0.40
2018-02-02T00:21:15.561Z,0.40
2018-02-02T00:23:43.112Z,0.30
2018-02-02T00:26:10.680Z,0.30
2018-02-02T00:28:38.238Z,0.20
2018-02-02T00:31:05.792Z,0.20
2018-02-02T00:33:33.373Z,0.20
2018-02-02T00:36:01.677Z,0.10
2018-02-02T00:38:29.284Z,0.10
2018-02-02T00:40:56.911Z,0.10
2018-02-02T00:43:25.074Z,0.20
2018-02-02T00:45:52.642Z,0.30
2018-02-02T00:48:20.199Z,0.30
2018-02-02T00:50:53.469Z,0.30
2018-02-02T00:53:21.057Z,0.20
2018-02-02T00:55:48.661Z,0.20
2018-02-02T00:58:16.221Z,0.10
2018-02-02T01:00:43.785Z,0.10
2018-02-02T01:03:12.096Z,0.10
2018-02-02T01:05:39.696Z,0.10
2018-02-02T01:08:07.260Z,0.20
2018-02-02T01:10:34.811Z,0.10
2018-02-02T01:13:02.385Z,0.10
2018-02-02T01:15:29.930Z,0.10
2018-02-02T01:17:57.509Z,0.00
2018-02-02T01:20:25.066Z,0.00
2018-02-02T01:22:52.653Z,-0.10
2018-02-02T01:25:20.241Z,-0.10
2018-02-02T01:27:47.882Z,-0.10
2018-02-02T01:30:15.411Z,-0.20
2018-02-02T01:32:43.754Z,-0.30
2018-02-02T01:35:11.331Z,-0.30
2018-02-02T01:37:38.907Z,-0.30
2018-02-02T01:40:07.305Z,-0.20
2018-02-02T01:42:36.186Z,-0.20
2018-02-02T01:45:03.892Z,-0.10
2018-02-02T01:47:31.478Z,0.00
2018-02-02T01:49:59.069Z,0.00
2018-02-02T01:52:26.673Z,0.10
2018-02-02T01:54:54.303Z,0.10
2018-02-02T01:57:21.891Z,0.10
2018-02-02T01:59:49.495Z,0.20
2018-02-02T02:02:17.825Z,0.20
2018-02-02T02:04:45.401Z,0.20
2018-02-02T02:07:12.989Z,0.20
2018-02-02T02:09:41.341Z,0.10
2018-02-02T02:12:08.902Z,0.10
2018-02-02T02:14:36.535Z,0.00
2018-02-02T02:17:04.115Z,0.00
2018-02-02T02:19:31.690Z,-0.10
2018-02-02T02:21:59.285Z,-0.20
2018-02-02T02:24:27.617Z,-0.30
2018-02-02T02:26:55.176Z,-0.30
2018-02-02T02:29:22.749Z,-0.30
2018-02-02T02:31:50.352Z,-0.30
2018-02-02T02:34:17.926Z,-0.40
2018-02-02T02:36:45.509Z,-0.40
2018-02-02T02:39:13.063Z,-0.40
2018-02-02T02:41:40.645Z,-0.50
2018-02-02T02:44:08.200Z,-0.50
2018-02-02T02:46:35.785Z,-0.50
2018-02-02T02:49:04.124Z,-0.50
2018-02-02T02:51:31.756Z,-0.50
2018-02-02T02:53:59.332Z,-0.50
2018-02-02T02:56:26.913Z,-0.50
2018-02-02T02:58:54.491Z,-0.50
2018-02-02T03:01:22.120Z,-0.60
2018-02-02T03:03:49.685Z,-0.60
2018-02-02T03:06:17.244Z,-0.60
2018-02-02T03:08:44.788Z,-0.50
2018-02-02T03:11:12.356Z,-0.50
2018-02-02T03:13:39.905Z,-0.40
2018-02-02T03:16:07.527Z,-0.40
2018-02-02T03:18:35.133Z,-0.40
2018-02-02T03:21:02.765Z,-0.50
2018-02-02T03:23:30.317Z,-0.50
2018-02-02T03:25:57.922Z,-0.50
2018-02-02T03:28:25.499Z,-0.50
2018-02-02T03:30:53.805Z,-0.40
2018-02-02T03:33:21.362Z,-0.40
2018-02-02T03:35:48.908Z,-0.50
2018-02-02T03:38:16.496Z,-0.50
2018-02-02T03:40:45.456Z,-0.50
2018-02-02T03:43:13.041Z,-0.50
2018-02-02T03:45:40.597Z,-0.50
2018-02-02T03:48:08.917Z,-0.30
2018-02-02T03:50:36.476Z,-0.30
2018-02-02T03:53:04.104Z,-0.20
2018-02-02T03:55:31.689Z,-0.10
2018-02-02T03:57:59.241Z,0.00
2018-02-02T04:00:26.800Z,0.00
2018-02-02T04:02:54.353Z,0.10
2018-02-02T04:05:22.013Z,0.10
2018-02-02T04:07:49.564Z,0.20
2018-02-02T04:10:17.121Z,0.20
2018-02-02T04:12:44.649Z,0.20
2018-02-02T04:15:12.227Z,0.20
2018-02-02T04:17:40.629Z,0.20
2018-02-02T04:20:08.221Z,0.20
2018-02-02T04:22:35.786Z,0.10
2018-02-02T04:25:03.370Z,0.10
2018-02-02T04:27:30.958Z,0.10
2018-02-02T04:29:58.503Z,0.10
2018-02-02T04:32:26.068Z,0.10
2018-02-02T04:35:03.553Z,0.00
2018-02-02T04:37:31.115Z,0.00
2018-02-02T04:39:58.686Z,0.00
2018-02-02T04:42:26.284Z,-0.10
2018-02-02T04:44:53.869Z,-0.10
2018-02-02T04:50:14.677Z,-0.20
2018-02-02T04:52:43.024Z,-0.40
2018-02-02T04:55:10.608Z,-0.40
2018-02-02T04:57:38.950Z,-0.40
2018-02-02T05:00:06.492Z,-0.40
2018-02-02T05:02:34.066Z,-0.50
2018-02-02T05:05:01.621Z,-0.50
2018-02-02T05:07:29.216Z,-0.60
2018-02-02T05:09:57.539Z,-0.70
2018-02-02T05:12:25.126Z,-0.70
2018-02-02T05:14:52.694Z,-0.70
2018-02-02T05:17:20.257Z,-0.80
2018-02-02T05:19:47.809Z,-0.80
2018-02-02T05:22:15.350Z,-0.80
2018-02-02T05:24:42.916Z,-0.90
2018-02-02T05:27:10.466Z,-0.80
2018-02-02T05:29:38.053Z,-0.90
2018-02-02T05:32:05.589Z,-0.90
2018-02-02T05:34:33.144Z,-1.00
2018-02-02T05:37:00.719Z,-1.00
2018-02-02T05:39:28.282Z,-1.00
2018-02-02T05:41:55.838Z,-1.00
2018-02-02T05:44:23.430Z,-1.10
2018-02-02T05:46:50.981Z,-1.10
2018-02-02T05:49:19.333Z,-1.10
2018-02-02T05:51:46.880Z,-1.10
2018-02-02T05:54:14.456Z,-1.10
2018-02-02T05:56:41.987Z,-1.10
2018-02-02T05:59:09.551Z,-1.10
2018-02-02T06:01:37.092Z,-1.10
2018-02-02T06:04:04.616Z,-1.10
2018-02-02T06:06:32.939Z,-1.10
2018-02-02T06:09:00.478Z,-1.10
2018-02-02T06:11:28.809Z,-1.10
2018-02-02T06:13:56.328Z,-1.10
2018-02-02T06:16:23.889Z,-1.10
2018-02-02T06:18:51.424Z,-1.20
2018-02-02T06:21:18.971Z,-1.20
2018-02-02T06:23:47.257Z,-1.40
2018-02-02T06:26:14.805Z,-1.40
2018-02-02T06:28:42.340Z,-1.40
2018-02-02T06:31:09.885Z,-1.50
2018-02-02T06:33:37.408Z,-1.50
2018-02-02T06:36:04.947Z,-1.60
2018-02-02T06:38:32.461Z,-1.60
2018-02-02T06:41:00.019Z,-1.60
2018-02-02T06:43:27.544Z,-1.50
2018-02-02T06:45:55.074Z,-1.60
2018-02-02T06:48:22.612Z,-1.60
2018-02-02T06:50:50.141Z,-1.70
2018-02-02T06:53:17.688Z,-1.80
2018-02-02T06:55:45.225Z,-1.80
2018-02-02T06:58:13.536Z,-1.70
2018-02-02T07:00:41.055Z,-1.70
2018-02-02T07:03:08.617Z,-1.70
2018-02-02T07:05:36.179Z,-1.70
2018-02-02T07:08:03.729Z,-1.70
2018-02-02T07:10:31.253Z,-1.70
2018-02-02T07:12:59.597Z,-1.50
2018-02-02T07:15:27.115Z,-1.60
2018-02-02T07:17:54.693Z,-1.40
2018-02-02T07:20:22.222Z,-1.40
2018-02-02T07:22:50.524Z,-1.20
2018-02-02T07:25:18.064Z,-1.20
2018-02-02T07:27:45.612Z,-1.10
2018-02-02T07:30:13.238Z,-1.10
2018-02-02T07:32:40.770Z,-1.00
2018-02-02T07:35:08.334Z,-1.00
2018-02-02T07:37:35.876Z,-0.90
2018-02-02T07:40:03.440Z,-0.80
2018-02-02T07:42:31.000Z,-0.80
2018-02-02T07:44:58.560Z,-0.70
2018-02-02T07:47:26.096Z,-0.70
2018-02-02T07:49:53.644Z,-0.60
2018-02-02T07:52:21.927Z,-0.50
2018-02-02T07:54:49.465Z,-0.50
2018-02-02T07:57:17.784Z,-0.30
2018-02-02T07:59:45.359Z,-0.30
2018-02-02T08:05:30.745Z,-0.20
2018-02-02T08:07:58.310Z,0.00
2018-02-02T08:10:25.903Z,0.10
2018-02-02T08:12:54.207Z,0.30
2018-02-02T08:15:21.760Z,0.30
2018-02-02T08:17:49.336Z,0.40
2018-02-02T08:20:16.872Z,0.50
2018-02-02T08:22:45.153Z,0.60
2018-02-02T08:25:13.455Z,0.70
2018-02-02T08:27:40.983Z,0.70
2018-02-02T08:30:08.530Z,0.70
2018-02-02T08:32:36.827Z,0.70
2018-02-02T08:35:04.380Z,0.70
2018-02-02T08:37:32.660Z,0.60
2018-02-02T08:40:00.219Z,0.60
2018-02-02T08:42:27.757Z,0.60
2018-02-02T08:44:56.038Z,0.80
2018-02-02T08:47:30.212Z,0.80
2018-02-02T08:49:57.741Z,0.70
2018-02-02T08:52:25.285Z,0.90
2018-02-02T08:54:52.796Z,1.00
2018-02-02T08:57:20.335Z,1.30
2018-02-02T08:59:47.853Z,1.50
2018-02-02T09:02:16.154Z,1.70
2018-02-02T09:04:43.685Z,1.70
2018-02-02T09:07:11.981Z,1.70
2018-02-02T09:09:39.496Z,1.70
2018-02-02T09:12:07.052Z,2.00
2018-02-02T09:14:34.593Z,2.30
2018-02-02T09:17:02.136Z,2.30
2018-02-02T09:19:29.663Z,2.70
2018-02-02T09:21:56.718Z,2.80
2018-02-02T09:24:24.242Z,3.00
2018-02-02T09:26:52.553Z,2.90
2018-02-02T09:29:20.076Z,2.90
2018-02-02T09:31:48.364Z,3.30
2018-02-02T09:34:16.697Z,3.30
2018-02-02T09:36:44.216Z,3.30
2018-02-02T09:39:11.800Z,3.30
2018-02-02T09:41:39.359Z,3.50
2018-02-02T09:44:06.924Z,3.50
2018-02-02T09:46:34.512Z,3.80
2018-02-02T09:49:02.064Z,4.00
2018-02-02T09:51:29.610Z,3.90
2018-02-02T09:53:57.174Z,3.70
2018-02-02T09:56:24.712Z,3.70
2018-02-02T09:58:52.311Z,3.50
2018-02-02T10:01:19.869Z,3.30
2018-02-02T10:06:53.339Z,3.20
2018-02-02T10:09:21.389Z,3.20
2018-02-02T10:11:50.386Z,3.30
2018-02-02T10:14:20.113Z,3.20
2018-02-02T10:16:48.719Z,3.20
2018-02-02T10:19:16.408Z,3.30
2018-02-02T10:21:46.058Z,3.50
2018-02-02T10:24:16.803Z,3.50
2018-02-02T10:26:45.027Z,3.50
2018-02-02T10:29:12.708Z,3.70
2018-02-02T10:31:40.790Z,3.60
2018-02-02T10:34:11.112Z,3.70
2018-02-02T10:36:38.962Z,3.60
2018-02-02T10:39:07.043Z,3.60
2018-02-02T10:41:35.925Z,3.60
2018-02-02T10:44:03.725Z,3.80
2018-02-02T10:46:32.156Z,4.10
2018-02-02T10:49:01.762Z,4.20
2018-02-02T10:51:29.925Z,4.40
2018-02-02T10:53:59.659Z,4.00
2018-02-02T10:56:28.027Z,3.90
2018-02-02T10:58:55.937Z,4.20
2018-02-02T11:01:40.611Z,4.30
2018-02-02T11:04:10.328Z,4.30
2018-02-02T11:06:39.077Z,4.10
2018-02-02T11:09:07.689Z,4.10
2018-02-02T11:11:35.525Z,4.00
2018-02-02T11:14:03.227Z,4.00
2018-02-02T11:16:32.520Z,3.90
2018-02-02T11:19:01.960Z,3.90
2018-02-02T11:21:31.980Z,4.20
2018-02-02T11:24:01.874Z,4.70
2018-02-02T11:26:29.749Z,4.70
2018-02-02T11:28:57.753Z,5.00
2018-02-02T11:31:28.280Z,5.40
2018-02-02T11:33:57.332Z,5.80
2018-02-02T11:36:28.607Z,6.00
2018-02-02T11:38:56.893Z,5.80
2018-02-02T11:41:25.936Z,5.80
2018-02-02T11:43:54.922Z,6.00
2018-02-02T11:46:22.931Z,6.50
2018-02-02T11:48:51.414Z,6.80
2018-02-02T11:51:39.709Z,6.70
2018-02-02T11:54:08.413Z,6.50
2018-02-02T11:56:37.250Z,5.90
2018-02-02T11:59:06.440Z,6.20
2018-02-02T12:01:35.196Z,6.50
2018-02-02T12:04:04.252Z,6.50
2018-02-02T12:06:32.951Z,6.80
2018-02-02T12:09:01.251Z,6.70
2018-02-02T12:11:29.297Z,6.90
2018-02-02T12:13:57.893Z,7.20
2018-02-02T12:16:26.544Z,7.20
2018-02-02T12:18:54.342Z,7.70
2018-02-02T12:21:22.074Z,7.40
2018-02-02T12:23:55.780Z,7.10
2018-02-02T12:26:29.233Z,7.40
2018-02-02T12:29:03.920Z,7.40
2018-02-02T12:31:37.677Z,7.30
2018-02-02T12:34:11.532Z,7.40
2018-02-02T12:36:39.710Z,6.70
2018-02-02T12:39:07.482Z,7.50
2018-02-02T12:41:35.919Z,8.50
2018-02-02T12:44:03.584Z,8.50
2018-02-02T12:46:32.905Z,8.30
2018-02-02T12:49:22.123Z,8.80
2018-02-02T12:51:49.767Z,9.30
2018-02-02T12:54:17.599Z,9.90
2018-02-02T12:56:46.422Z,11.60
2018-02-02T12:59:14.501Z,11.60
2018-02-02T13:01:42.888Z,11.80
2018-02-02T13:04:10.848Z,11.30
2018-02-02T13:06:38.448Z,11.20
2018-02-02T13:09:06.059Z,10.60
2018-02-02T13:11:33.645Z,11.00
2018-02-02T13:14:01.566Z,11.20
2018-02-02T13:16:29.844Z,11.60
2018-02-02T13:19:00.137Z,10.60
2018-02-02T13:21:28.725Z,9.40
2018-02-02T13:23:56.789Z,8.20
2018-02-02T13:26:24.371Z,7.50
2018-02-02T13:28:52.892Z,6.50
2018-02-02T13:31:21.884Z,6.40
2018-02-02T13:33:49.590Z,6.40
2018-02-02T13:36:17.278Z,6.20
2018-02-02T13:38:58.856Z,6.70
2018-02-02T13:41:27.486Z,8.40
2018-02-02T13:44:00.214Z,9.30
2018-02-02T13:46:28.916Z,9.70
2018-02-02T13:48:58.385Z,9.00
2018-02-02T13:51:26.009Z,8.10
2018-02-02T13:53:53.721Z,7.40
2018-02-02T13:56:22.193Z,6.60
2018-02-02T13:58:49.947Z,5.80
2018-02-02T14:01:17.817Z,5.40
2018-02-02T14:03:48.160Z,5.30
2018-02-02T14:06:16.162Z,5.20
2018-02-02T14:08:48.902Z,5.10
2018-02-02T14:11:18.076Z,4.90
2018-02-02T14:13:46.210Z,4.90
2018-02-02T14:16:15.158Z,4.80
2018-02-02T14:18:45.115Z,4.80
2018-02-02T14:21:13.175Z,4.70
2018-02-02T14:23:41.365Z,4.80
2018-02-02T14:28:52.976Z,4.60
2018-02-02T14:31:20.513Z,4.60
2018-02-02T14:33:48.805Z,4.70
2018-02-02T14:36:17.304Z,4.70
2018-02-02T14:38:44.869Z,4.70
2018-02-02T14:41:12.428Z,4.70
2018-02-02T14:43:39.969Z,4.60
2018-02-02T14:46:07.549Z,4.50
2018-02-02T14:48:35.142Z,4.50
2018-02-02T14:51:02.672Z,4.40
2018-02-02T14:53:30.235Z,4.40
2018-02-02T14:55:57.773Z,4.50
2018-02-02T14:58:25.392Z,4.50
2018-02-02T15:00:53.756Z,4.40
2018-02-02T15:03:21.359Z,4.30
2018-02-02T15:05:48.941Z,4.30
2018-02-02T15:08:16.517Z,4.30
2018-02-02T15:10:44.099Z,4.20
2018-02-02T15:13:11.701Z,4.10
2018-02-02T15:15:39.275Z,4.10
2018-02-02T15:18:06.893Z,4.10
2018-02-02T15:20:36.036Z,4.00
2018-02-02T15:23:04.261Z,4.00
2018-02-02T15:25:31.860Z,3.90
2018-02-02T15:27:59.514Z,3.90
2018-02-02T15:30:27.213Z,3.90
2018-02-02T15:32:54.853Z,3.90
2018-02-02T15:35:22.502Z,3.80
2018-02-02T15:37:50.110Z,3.80
2018-02-02T15:40:17.769Z,3.80
2018-02-02T15:42:45.475Z,3.80
2018-02-02T15:45:13.061Z,3.70
2018-02-02T15:47:40.730Z,3.70
2018-02-02T15:50:08.333Z,3.70
2018-02-02T15:52:35.996Z,3.70
2018-02-02T15:55:03.632Z,3.60
2018-02-02T15:57:31.223Z,3.60
2018-02-02T15:59:58.823Z,3.60
2018-02-02T16:02:26.356Z,3.60
2018-02-02T16:04:53.911Z,3.50
2018-02-02T16:07:21.428Z,3.50
2018-02-02T16:09:48.936Z,3.50
2018-02-02T16:12:16.471Z,3.50
2018-02-02T16:14:44.752Z,3.40
2018-02-02T16:17:13.047Z,3.40
2018-02-02T16:19:41.328Z,3.40
2018-02-02T16:22:09.628Z,3.30
2018-02-02T16:24:37.137Z,3.40
2018-02-02T16:27:04.676Z,3.40
2018-02-02T16:29:32.964Z,3.30
2018-02-02T16:32:01.263Z,3.30
2018-02-02T16:34:28.774Z,3.20
2018-02-02T16:36:56.307Z,3.30
2018-02-02T16:39:23.867Z,3.20
2018-02-02T16:41:51.416Z,3.20
2018-02-02T16:44:18.928Z,3.20
2018-02-02T16:46:46.479Z,3.20
2018-02-02T16:49:14.764Z,3.20
2018-02-02T16:51:43.059Z,3.10
2018-02-02T16:54:10.577Z,3.10
2018-02-02T16:56:38.103Z,3.10
2018-02-02T16:59:05.613Z,3.10
2018-02-02T17:01:33.896Z,3.00
2018-02-02T17:04:01.433Z,3.00
2018-02-02T17:06:28.953Z,3.00
2018-02-02T17:08:56.494Z,2.90
2018-02-02T17:11:24.008Z,2.90
2018-02-02T17:13:51.548Z,2.80
2018-02-02T17:16:19.055Z,2.80
2018-02-02T17:18:46.583Z,2.70
2018-02-02T17:21:14.085Z,2.70
2018-02-02T17:23:41.626Z,2.60
2018-02-02T17:26:09.177Z,2.50
2018-02-02T17:28:36.715Z,2.50
2018-02-02T17:31:04.229Z,2.60
2018-02-02T17:33:31.760Z,2.60
2018-02-02T17:35:59.279Z,2.60
2018-02-02T17:38:26.815Z,2.60
2018-02-02T17:40:54.329Z,2.60
2018-02-02T17:43:21.873Z,2.60
2018-02-02T17:45:50.147Z,2.70
2018-02-02T17:48:18.470Z,2.60
2018-02-02T17:50:45.988Z,2.60
2018-02-02T17:53:14.268Z,2.60
2018-02-02T17:55:41.812Z,2.60
2018-02-02T17:58:10.095Z,2.50
2018-02-02T18:03:45.468Z,2.30
2018-02-02T18:06:12.988Z,2.30
2018-02-02T18:08:40.508Z,2.20
2018-02-02T18:11:08.813Z,2.20
2018-02-02T18:13:36.329Z,2.20
2018-02-02T18:16:03.860Z,2.20
2018-02-02T18:18:32.146Z,2.20
2018-02-02T18:20:59.684Z,2.10
2018-02-02T18:23:27.196Z,2.10
2018-02-02T18:25:54.732Z,2.10
2018-02-02T18:28:22.257Z,1.90
2018-02-02T18:30:49.801Z,1.80
2018-02-02T18:33:17.321Z,1.70
2018-02-02T18:35:44.866Z,1.60
2018-02-02T18:38:12.377Z,1.40
2018-02-02T18:40:39.925Z,1.30
2018-02-02T18:43:07.440Z,1.20
2018-02-02T18:45:35.176Z,1.10
2018-02-02T18:48:03.462Z,1.00
2018-02-02T18:50:31.747Z,0.90
2018-02-02T18:52:59.291Z,0.90
2018-02-02T18:55:27.656Z,1.00
2018-02-02T18:57:55.188Z,1.00
2018-02-02T19:00:22.783Z,1.20
2018-02-02T19:02:51.095Z,1.30
2018-02-02T19:05:18.610Z,1.30
2018-02-02T19:07:46.284Z,1.50
2018-02-02T19:10:14.666Z,1.50
2018-02-02T19:12:42.318Z,1.50
2018-02-02T19:15:10.159Z,1.60
2018-02-02T19:17:37.737Z,1.60
2018-02-02T19:20:06.277Z,1.70
2018-02-02T19:22:34.007Z,1.70
2018-02-02T19:25:01.573Z,1.80
2018-02-02T19:27:29.167Z,1.80
2018-02-02T19:29:56.735Z,1.90
2018-02-02T19:32:24.267Z,1.90
2018-02-02T19:34:51.787Z,1.90
2018-02-02T19:37:19.501Z,2.00
2018-02-02T19:39:47.080Z,2.00
2018-02-02T19:42:14.671Z,2.00
2018-02-02T19:44:42.286Z,2.00
2018-02-02T19:47:10.148Z,2.00
2018-02-02T19:49:37.811Z,2.00
2018-02-02T19:52:05.672Z,2.10
2018-02-02T19:54:33.364Z,2.10
2018-02-02T19:57:01.861Z,2.10
2018-02-02T19:59:29.622Z,2.10
2018-02-02T20:01:58.094Z,2.10
2018-02-02T20:04:26.465Z,2.10
2018-02-02T20:06:54.029Z,2.10
2018-02-02T20:09:22.484Z,2.10
2018-02-02T20:11:50.259Z,2.00
2018-02-02T20:14:17.801Z,2.00
2018-02-02T20:16:45.312Z,1.90
2018-02-02T20:19:12.817Z,1.90
2018-02-02T20:21:40.408Z,1.80
2018-02-02T20:24:08.679Z,1.80
2018-02-02T20:26:37.039Z,1.80
2018-02-02T20:29:04.619Z,1.70
2018-02-02T20:31:32.975Z,1.80
2018-02-02T20:34:00.530Z,1.80
2018-02-02T20:36:28.175Z,1.80
2018-02-02T20:38:55.695Z,1.90
2018-02-02T20:41:23.283Z,1.90
2018-02-02T20:43:50.846Z,2.00
2018-02-02T20:46:18.432Z,2.10
2018-02-02T20:48:46.002Z,2.10
2018-02-02T20:51:13.604Z,2.20
2018-02-02T20:53:41.129Z,2.20
2018-02-02T20:56:09.488Z,2.20
2018-02-02T20:58:37.053Z,2.10
2018-02-02T21:01:04.649Z,2.20
2018-02-02T21:03:32.167Z,2.10
2018-02-02T21:05:59.774Z,2.10
2018-02-02T21:08:27.353Z,2.10
2018-02-02T21:10:54.934Z,2.10
2018-02-02T21:13:22.456Z,2.10
2018-02-02T21:15:50.031Z,2.10
2018-02-02T21:18:17.596Z,2.10
2018-02-02T21:20:45.163Z,2.10
2018-02-02T21:23:12.700Z,2.00
2018-02-02T21:25:40.989Z,2.00
2018-02-02T21:28:08.548Z,1.90
2018-02-02T21:30:36.120Z,1.90
2018-02-02T21:33:03.663Z,2.00
2018-02-02T21:35:31.238Z,2.00
2018-02-02T21:37:58.868Z,2.00
2018-02-02T21:40:26.439Z,2.00
2018-02-02T21:42:53.990Z,2.00
2018-02-02T21:45:21.530Z,2.00
2018-02-02T21:47:49.127Z,2.10
2018-02-02T21:50:16.635Z,2.10
2018-02-02T21:52:44.168Z,2.10
2018-02-02T21:55:11.684Z,2.00
2018-02-02T21:57:39.217Z,2.00
2018-02-02T22:00:06.790Z,2.10
2018-02-02T22:02:34.388Z,2.10
2018-02-02T22:05:01.955Z,2.10
2018-02-02T22:07:29.487Z,2.10
2018-02-02T22:09:57.053Z,2.10
2018-02-02T22:12:24.693Z,2.10
2018-02-02T22:14:52.178Z,2.20
2018-02-02T22:17:19.765Z,2.20
2018-02-02T22:19:48.078Z,2.20
2018-02-02T22:22:15.672Z,2.10
2018-02-02T22:24:43.198Z,2.20
2018-02-02T22:27:10.782Z,2.10
2018-02-02T22:29:38.356Z,2.10
2018-02-02T22:32:05.952Z,2.10
2018-02-02T22:34:34.247Z,2.10
2018-02-02T22:37:01.761Z,2.10
2018-02-02T22:39:29.298Z,2.10
2018-02-02T22:41:57.050Z,2.10
2018-02-02T22:44:24.584Z,2.10
2018-02-02T22:46:52.097Z,2.10
2018-02-02T22:49:19.629Z,2.00
2018-02-02T22:51:47.136Z,2.00
2018-02-02T22:54:15.436Z,2.00
2018-02-02T22:56:42.954Z,2.00
2018-02-02T22:59:11.264Z,2.00
2018-02-02T23:01:38.780Z,2.00
2018-02-02T23:04:06.296Z,2.00
2018-02-02T23:06:33.841Z,2.00
2018-02-02T23:09:01.365Z,2.00
2018-02-02T23:11:28.907Z,2.00
2018-02-02T23:13:56.415Z,2.00
2018-02-02T23:16:23.948Z,2.00
2018-02-02T23:18:51.474Z,2.00
2018-02-02T23:21:19.016Z,2.00
2018-02-02T23:23:46.516Z,2.00
2018-02-02T23:26:14.829Z,2.00
2018-02-02T23:28:42.335Z,2.00
2018-02-02T23:31:09.896Z,2.00
2018-02-02T23:33:37.443Z,2.00
2018-02-02T23:36:04.960Z,2.00
2018-02-02T23:38:32.525Z,2.00
2018-02-02T23:41:00.086Z,2.00
2018-02-02T23:43:27.623Z,2.00
2018-02-02T23:45:55.133Z,2.00
2018-02-02T23:48:22.672Z,2.00
2018-02-02T23:50:50.182Z,2.00
2018-02-02T23:53:18.481Z,2.00
2018-02-02T23:55:45.992Z,2.00
2018-02-02T23:58:13.545Z,2.00
